Weather at Ansongo Heliport

Public forecast

Using degrees Celsius for public forecast. Weather courtesy of forecast.io.

Closest aviation weather report (METAR) to Ansongo Heliport

Closest report is Gao Airport, 43.3 nm (80.3 km) NW.

2024/07/25 08:00 (retrieved 1 hour ago)

GAGO 250800Z 25010KT 7000 FEW030 26/22 Q1011 NOSIG

Closest aviation forecast (TAF) to Ansongo Heliport

Closest forecast is Gao Airport, 43.3 nm (80.3 km) NW.

2024/07/25 06:03 (retrieved 3 hours ago)

TAF TAF GAGO 250500Z 2506/2606 25012KT 6000 FEW030 PROB40 TEMPO 2515/2520 09020G35KT 3000 TSRA BLDU BKN030 FEW040CB